createdAt,value
2019-04-23T00:01:49.198Z,19.20
2019-04-23T00:04:18.326Z,19.10
2019-04-23T00:07:03.516Z,19.10
2019-04-23T00:11:51.429Z,19.00
2019-04-23T00:14:29.886Z,18.90
2019-04-23T00:16:57.781Z,18.90
2019-04-23T00:19:31.054Z,18.90
2019-04-23T00:22:13.350Z,18.80
2019-04-23T00:27:40.446Z,18.80
2019-04-23T00:30:01.044Z,18.80
2019-04-23T00:35:00.748Z,18.70
2019-04-23T00:40:11.453Z,18.70
2019-04-23T00:44:56.245Z,18.60
2019-04-23T00:47:46.703Z,18.60
2019-04-23T00:52:33.835Z,18.60
2019-04-23T00:55:12.478Z,18.50
2019-04-23T00:57:43.443Z,18.50
2019-04-23T01:02:45.781Z,18.50
2019-04-23T01:07:45.719Z,18.50
2019-04-23T01:10:25.622Z,18.50
2019-04-23T01:18:03.429Z,18.40
2019-04-23T01:20:44.158Z,18.40
2019-04-23T01:22:50.898Z,18.40
2019-04-23T01:25:35.121Z,18.30
2019-04-23T01:28:28.258Z,18.30
2019-04-23T01:31:05.615Z,18.30
2019-04-23T01:36:21.395Z,18.20
2019-04-23T01:41:09.259Z,18.20
2019-04-23T01:43:36.768Z,18.20
2019-04-23T01:46:08.051Z,18.10
2019-04-23T01:48:42.364Z,18.10
2019-04-23T01:51:02.444Z,18.10
2019-04-23T01:53:45.501Z,18.10
2019-04-23T01:56:11.414Z,18.10
2019-04-23T01:58:45.479Z,18.10
2019-04-23T02:01:21.483Z,18.10
2019-04-23T02:06:28.174Z,18.00
2019-04-23T02:08:55.272Z,18.00
2019-04-23T02:11:19.770Z,18.00
2019-04-23T02:13:55.563Z,18.00
2019-04-23T02:16:35.867Z,17.90
2019-04-23T02:18:59.482Z,17.90
2019-04-23T02:21:35.354Z,17.90
2019-04-23T02:24:01.019Z,17.90
2019-04-23T02:26:35.649Z,17.90
2019-04-23T02:34:31.215Z,17.80
2019-04-23T02:36:57.118Z,17.80
2019-04-23T02:39:22.074Z,17.70
2019-04-23T02:46:59.369Z,17.70
2019-04-23T02:49:39.966Z,17.70
2019-04-23T02:51:59.408Z,17.70
2019-04-23T02:54:46.500Z,17.60
2019-04-23T02:56:55.343Z,17.60
2019-04-23T03:04:49.995Z,17.60
2019-04-23T03:07:37.579Z,17.60
2019-04-23T03:09:56.418Z,17.50
2019-04-23T03:15:25.323Z,17.50
2019-04-23T03:18:11.842Z,17.50
2019-04-23T03:26:08.955Z,17.40
2019-04-23T03:41:23.631Z,17.30
2019-04-23T03:51:16.310Z,17.20
2019-04-23T03:58:47.002Z,17.20
2019-04-23T04:09:08.116Z,17.10
2019-04-23T04:14:21.046Z,17.10
2019-04-23T04:16:28.379Z,17.10
2019-04-23T04:19:09.226Z,17.00
2019-04-23T04:21:36.953Z,17.00
2019-04-23T04:26:48.752Z,17.00
2019-04-23T04:34:31.945Z,17.00
2019-04-23T04:36:45.830Z,15.30
2019-04-23T04:39:08.280Z,17.00
2019-04-23T04:41:53.554Z,17.00
2019-04-23T04:44:30.943Z,16.90
2019-04-23T04:46:45.573Z,16.90
2019-04-23T04:56:49.810Z,16.80
2019-04-23T04:59:22.731Z,16.80
2019-04-23T05:02:01.208Z,16.80
2019-04-23T05:04:26.694Z,16.80
2019-04-23T05:12:17.183Z,16.80
2019-04-23T05:14:35.513Z,16.80
2019-04-23T05:17:11.173Z,16.80
2019-04-23T05:19:43.845Z,16.90
2019-04-23T05:22:06.578Z,16.90
2019-04-23T05:24:37.061Z,16.90
2019-04-23T05:27:14.028Z,16.90
2019-04-23T05:29:42.792Z,16.90
2019-04-23T05:32:15.299Z,16.90
2019-04-23T05:34:40.175Z,16.90
2019-04-23T05:37:09.261Z,17.00
2019-04-23T05:42:34.013Z,17.00
2019-04-23T05:47:23.211Z,17.00
2019-04-23T05:49:57.240Z,17.10
2019-04-23T05:52:24.180Z,17.10
2019-04-23T05:54:56.276Z,17.10
2019-04-23T05:57:20.581Z,17.10
2019-04-23T05:59:56.919Z,17.20
2019-04-23T06:02:34.753Z,17.20
2019-04-23T06:05:04.215Z,17.20
2019-04-23T06:10:06.451Z,17.30
2019-04-23T06:12:31.921Z,17.30
2019-04-23T06:15:07.734Z,17.30
2019-04-23T06:17:56.353Z,17.30
2019-04-23T06:20:09.366Z,17.40
2019-04-23T06:22:45.499Z,17.40
2019-04-23T06:25:21.533Z,17.40
2019-04-23T06:27:47.899Z,17.40
2019-04-23T06:30:17.734Z,17.50
2019-04-23T06:32:49.321Z,17.50
2019-04-23T06:35:19.109Z,17.50
2019-04-23T06:38:28.512Z,17.60
2019-04-23T06:40:22.287Z,17.60
2019-04-23T06:43:05.314Z,17.60
2019-04-23T06:45:35.542Z,17.70
2019-04-23T06:48:09.055Z,17.70
2019-04-23T06:50:43.591Z,17.80
2019-04-23T06:53:00.601Z,17.80
2019-04-23T06:55:44.559Z,17.90
2019-04-23T06:58:12.357Z,17.90
2019-04-23T07:00:41.269Z,17.90
2019-04-23T07:03:27.212Z,18.00
2019-04-23T07:06:16.718Z,18.00
2019-04-23T07:09:03.192Z,18.00
2019-04-23T07:11:16.846Z,18.10
2019-04-23T07:13:49.193Z,18.10
2019-04-23T07:16:11.373Z,18.10
2019-04-23T07:18:43.520Z,18.20
2019-04-23T07:21:18.712Z,18.20
2019-04-23T07:23:54.457Z,18.30
2019-04-23T07:26:34.852Z,18.30
2019-04-23T07:28:53.260Z,18.40
2019-04-23T07:36:30.833Z,18.50
2019-04-23T07:39:16.027Z,18.60
2019-04-23T07:45:03.543Z,18.70
2019-04-23T07:50:49.408Z,18.80
2019-04-23T07:55:52.665Z,18.80
2019-04-23T07:58:27.255Z,18.90
2019-04-23T08:00:45.516Z,18.90
2019-04-23T08:05:59.143Z,19.00
2019-04-23T08:08:12.170Z,19.00
2019-04-23T08:11:34.270Z,19.10
2019-04-23T08:13:47.383Z,19.10
2019-04-23T08:18:54.356Z,19.20
2019-04-23T08:24:10.222Z,19.30
2019-04-23T08:27:07.541Z,19.30
2019-04-23T08:29:30.688Z,19.40
2019-04-23T08:34:48.353Z,19.50
2019-04-23T08:37:15.001Z,19.50
2019-04-23T08:42:33.474Z,19.60
2019-04-23T08:45:18.547Z,19.60
2019-04-23T08:48:12.403Z,19.60
2019-04-23T08:53:17.937Z,19.70
2019-04-23T08:58:06.040Z,19.80
2019-04-23T09:00:45.526Z,19.90
2019-04-23T09:03:20.000Z,19.90
2019-04-23T09:20:55.611Z,20.20
2019-04-23T09:23:34.477Z,20.30
2019-04-23T09:25:57.543Z,20.30
2019-04-23T09:31:14.532Z,20.40
2019-04-23T09:33:51.751Z,20.50
2019-04-23T09:36:45.616Z,20.50
2019-04-23T09:39:20.567Z,20.60
2019-04-23T09:42:02.276Z,20.60
2019-04-23T09:44:58.096Z,20.70
2019-04-23T09:47:45.883Z,20.70
2019-04-23T09:50:15.574Z,20.80
2019-04-23T09:55:23.981Z,20.90
2019-04-23T09:57:52.283Z,20.90
2019-04-23T10:00:24.997Z,21.00
2019-04-23T10:02:44.997Z,21.10
2019-04-23T10:05:07.391Z,21.10
2019-04-23T10:07:39.646Z,21.20
2019-04-23T10:09:57.359Z,21.30
2019-04-23T10:12:28.133Z,21.40
2019-04-23T10:15:09.437Z,21.40
2019-04-23T10:17:28.993Z,21.50
2019-04-23T10:20:00.442Z,21.60
2019-04-23T10:22:34.029Z,21.70
2019-04-23T10:25:03.434Z,21.70
2019-04-23T10:27:35.091Z,21.80
2019-04-23T10:30:08.175Z,21.90
2019-04-23T10:32:37.877Z,22.00
2019-04-23T10:35:20.840Z,22.00
2019-04-23T10:37:46.742Z,22.10
2019-04-23T10:40:16.934Z,22.20
2019-04-23T10:42:45.931Z,22.30
2019-04-23T10:46:08.054Z,22.40
2019-04-23T10:49:31.708Z,22.40
2019-04-23T10:51:51.752Z,22.50
2019-04-23T10:56:55.289Z,22.60
2019-04-23T11:04:53.904Z,22.80
2019-04-23T11:07:31.279Z,22.90
2019-04-23T11:12:55.426Z,23.10
2019-04-23T11:16:00.335Z,23.20
2019-04-23T11:17:59.166Z,23.30
2019-04-23T11:23:01.628Z,23.40
2019-04-23T11:25:45.171Z,23.50
2019-04-23T11:30:45.013Z,23.70
2019-04-23T11:36:18.693Z,23.80
2019-04-23T11:41:05.770Z,24.00
2019-04-23T11:43:32.420Z,24.10
2019-04-23T11:46:07.977Z,24.20
2019-04-23T11:48:48.093Z,24.30
2019-04-23T11:56:12.098Z,24.50
2019-04-23T12:04:42.129Z,24.80
2019-04-23T12:07:29.802Z,24.90
2019-04-23T12:10:26.976Z,25.00
2019-04-23T12:15:18.408Z,25.20
2019-04-23T12:20:25.570Z,25.40
2019-04-23T12:25:32.404Z,25.60
2019-04-23T12:27:42.442Z,25.70
2019-04-23T12:30:33.909Z,25.80
2019-04-23T12:33:03.134Z,25.90
2019-04-23T12:35:29.113Z,26.00
2019-04-23T12:40:40.570Z,26.30
2019-04-23T12:43:17.549Z,26.40
2019-04-23T12:45:44.332Z,26.50
2019-04-23T12:55:51.249Z,26.90
2019-04-23T12:58:32.244Z,27.00
2019-04-23T13:00:52.882Z,27.00
2019-04-23T13:03:29.878Z,27.10
2019-04-23T13:05:57.524Z,27.20
2019-04-23T13:11:08.053Z,27.30
2019-04-23T13:16:16.395Z,27.30
2019-04-23T13:21:29.879Z,27.30
2019-04-23T13:23:41.123Z,27.30
2019-04-23T13:26:13.517Z,27.30
2019-04-23T13:28:52.876Z,27.40
2019-04-23T13:31:21.763Z,27.40
2019-04-23T13:33:54.234Z,27.40
2019-04-23T13:36:33.960Z,27.40
2019-04-23T13:38:54.988Z,27.30
2019-04-23T13:43:52.729Z,27.20
2019-04-23T13:46:35.675Z,27.20
2019-04-23T13:49:03.115Z,27.00
2019-04-23T13:57:12.736Z,26.80
2019-04-23T13:59:24.277Z,27.30
2019-04-23T14:01:52.281Z,26.70
2019-04-23T14:04:45.038Z,26.60
2019-04-23T14:07:09.754Z,26.60
2019-04-23T14:09:47.410Z,26.50
2019-04-23T14:12:09.171Z,26.40
2019-04-23T14:15:04.895Z,26.30
2019-04-23T14:19:53.871Z,26.10
2019-04-23T14:22:43.487Z,26.00
2019-04-23T14:27:27.676Z,25.90
2019-04-23T14:30:05.369Z,25.80
2019-04-23T14:37:31.063Z,25.60
2019-04-23T14:42:56.183Z,25.50
2019-04-23T14:50:39.949Z,25.30
2019-04-23T15:00:54.368Z,25.10
2019-04-23T15:05:56.812Z,25.00
2019-04-23T15:08:25.170Z,25.00
2019-04-23T15:11:06.802Z,24.90
2019-04-23T15:13:22.729Z,24.90
2019-04-23T15:16:04.750Z,24.90
2019-04-23T15:18:55.917Z,24.90
2019-04-23T15:21:38.001Z,24.80
2019-04-23T15:27:27.008Z,24.80
2019-04-23T15:28:29.140Z,24.80
2019-04-23T15:34:00.935Z,24.70
2019-04-23T15:36:32.132Z,24.70
2019-04-23T15:41:33.468Z,24.70
2019-04-23T15:44:03.116Z,24.60
2019-04-23T15:49:07.317Z,24.60
2019-04-23T15:51:35.544Z,24.60
2019-04-23T15:54:13.714Z,24.50
2019-04-23T16:01:41.192Z,24.50
2019-04-23T16:03:43.447Z,24.50
2019-04-23T16:06:16.550Z,24.50
2019-04-23T16:09:11.980Z,24.50
2019-04-23T16:19:35.320Z,24.40
2019-04-23T16:22:20.314Z,24.30
2019-04-23T16:24:39.803Z,24.40
2019-04-23T16:32:22.516Z,24.30
2019-04-23T16:35:10.934Z,24.20
2019-04-23T16:37:27.349Z,24.20
2019-04-23T16:40:03.495Z,24.20
2019-04-23T16:42:40.035Z,24.20
2019-04-23T16:45:13.105Z,24.10
2019-04-23T16:47:42.181Z,24.10
2019-04-23T16:50:10.567Z,24.10
2019-04-23T16:52:43.878Z,24.10
2019-04-23T16:58:04.317Z,24.00
2019-04-23T17:00:22.918Z,24.00
2019-04-23T17:02:59.757Z,24.00
2019-04-23T17:05:24.948Z,24.00
2019-04-23T17:08:06.747Z,24.00
2019-04-23T17:10:19.509Z,23.90
2019-04-23T17:12:54.795Z,23.90
2019-04-23T17:15:26.682Z,23.90
2019-04-23T17:17:54.971Z,23.90
2019-04-23T17:20:31.168Z,23.90
2019-04-23T17:23:07.453Z,23.80
2019-04-23T17:25:36.633Z,23.90
2019-04-23T17:28:20.133Z,23.80
2019-04-23T17:33:21.920Z,23.80
2019-04-23T17:41:20.507Z,23.70
2019-04-23T17:44:00.242Z,23.70
2019-04-23T17:46:22.052Z,23.60
2019-04-23T17:48:49.444Z,23.60
2019-04-23T17:51:19.852Z,23.60
2019-04-23T17:53:56.200Z,23.60
2019-04-23T17:59:00.459Z,23.50
2019-04-23T18:01:24.486Z,23.50
2019-04-23T18:04:29.516Z,23.50
2019-04-23T18:06:49.418Z,23.40
2019-04-23T18:11:47.338Z,23.40
2019-04-23T18:19:13.134Z,23.30
2019-04-23T18:22:07.301Z,23.30
2019-04-23T18:24:59.408Z,23.20
2019-04-23T18:27:23.422Z,23.20
2019-04-23T18:30:08.263Z,23.20
2019-04-23T18:33:43.381Z,23.10
2019-04-23T18:38:13.604Z,23.10
2019-04-23T18:41:02.020Z,23.00
2019-04-23T18:56:11.312Z,22.80
2019-04-23T18:58:51.868Z,22.80
2019-04-23T19:07:07.302Z,22.70
2019-04-23T19:10:03.628Z,22.60
2019-04-23T19:12:30.242Z,22.60
2019-04-23T19:15:09.252Z,22.50
2019-04-23T19:20:01.051Z,22.40
2019-04-23T19:22:42.829Z,22.40
2019-04-23T19:25:05.793Z,22.30
2019-04-23T19:30:34.321Z,22.20
2019-04-23T19:33:16.675Z,22.20
2019-04-23T19:35:59.730Z,22.20
2019-04-23T19:38:13.290Z,22.10
2019-04-23T19:43:19.370Z,22.00
2019-04-23T19:45:56.812Z,22.00
2019-04-23T19:48:25.296Z,21.90
2019-04-23T19:51:00.424Z,21.90
2019-04-23T19:53:39.949Z,21.90
2019-04-23T19:56:08.952Z,21.80
2019-04-23T19:58:47.007Z,21.80
2019-04-23T20:03:43.724Z,21.70
2019-04-23T20:06:13.749Z,21.70
2019-04-23T20:08:58.368Z,21.60
2019-04-23T20:11:07.763Z,21.60
2019-04-23T20:21:30.222Z,21.40
2019-04-23T20:34:49.666Z,21.30
2019-04-23T20:36:52.661Z,21.20
2019-04-23T20:39:33.014Z,21.20
2019-04-23T20:42:10.394Z,21.20
2019-04-23T20:49:42.820Z,21.00
2019-04-23T20:54:48.985Z,21.00
2019-04-23T20:57:39.225Z,20.90
2019-04-23T21:00:06.749Z,20.90
2019-04-23T21:03:26.132Z,20.90
2019-04-23T21:05:24.785Z,20.80
2019-04-23T21:10:36.975Z,20.80
2019-04-23T21:15:46.052Z,20.70
2019-04-23T21:18:33.094Z,20.60
2019-04-23T21:20:40.161Z,20.60
2019-04-23T21:23:11.242Z,20.60
2019-04-23T21:25:47.517Z,20.60
2019-04-23T21:31:11.498Z,20.50
2019-04-23T21:33:53.725Z,20.50
2019-04-23T21:39:15.382Z,20.40
2019-04-23T21:42:14.441Z,20.40
2019-04-23T21:44:38.575Z,20.30
2019-04-23T21:47:25.249Z,20.20
2019-04-23T21:49:56.701Z,20.30
2019-04-23T21:52:11.558Z,20.20
2019-04-23T21:54:51.522Z,20.20
2019-04-23T21:57:19.552Z,20.20
2019-04-23T21:59:50.566Z,20.20
2019-04-23T22:02:21.982Z,20.10
2019-04-23T22:04:54.025Z,20.10
2019-04-23T22:07:27.392Z,20.00
2019-04-23T22:09:59.187Z,20.00
2019-04-23T22:12:22.890Z,20.00
2019-04-23T22:17:36.299Z,19.90
2019-04-23T22:20:21.415Z,19.90
2019-04-23T22:22:42.023Z,19.80
2019-04-23T22:24:57.534Z,19.80
2019-04-23T22:27:39.642Z,19.80
2019-04-23T22:30:02.957Z,19.70
2019-04-23T22:32:54.173Z,19.70
2019-04-23T22:35:07.593Z,19.70
2019-04-23T22:37:46.301Z,19.70
2019-04-23T22:40:10.139Z,19.60
2019-04-23T22:43:07.441Z,19.60
2019-04-23T22:47:54.937Z,19.50
2019-04-23T22:50:18.627Z,19.50
2019-04-23T22:52:53.982Z,19.50
2019-04-23T22:55:47.170Z,19.50
2019-04-23T23:00:24.793Z,19.40
2019-04-23T23:06:03.142Z,19.40
2019-04-23T23:08:21.199Z,19.40
2019-04-23T23:13:28.401Z,19.30
2019-04-23T23:16:01.116Z,19.30
2019-04-23T23:21:08.011Z,19.20
2019-04-23T23:23:34.335Z,19.20
2019-04-23T23:26:09.089Z,19.10
2019-04-23T23:31:22.582Z,19.10
2019-04-23T23:36:14.069Z,19.00
2019-04-23T23:38:50.556Z,19.00
2019-04-23T23:41:23.205Z,19.00
2019-04-23T23:43:54.922Z,19.00
2019-04-23T23:48:48.502Z,18.90
2019-04-23T23:51:21.741Z,18.90
2019-04-23T23:53:57.374Z,18.90
2019-04-23T23:56:30.382Z,18.80
2019-04-23T23:59:08.400Z,18.80
